createdAt,value
2023-03-25T00:01:44.934Z,32.47
2023-03-25T00:05:44.910Z,31.90
2023-03-25T00:09:44.963Z,30.68
2023-03-25T00:13:44.793Z,28.84
2023-03-25T00:17:45.051Z,28.42
2023-03-25T00:21:44.937Z,31.57
2023-03-25T00:25:45.069Z,29.37
2023-03-25T00:29:45.150Z,29.58
2023-03-25T00:33:45.522Z,29.04
2023-03-25T00:37:45.254Z,29.36
2023-03-25T00:41:45.257Z,28.74
2023-03-25T00:45:45.566Z,27.89
2023-03-25T00:49:45.498Z,27.39
2023-03-25T00:53:45.510Z,25.00
2023-03-25T00:57:45.264Z,27.53
2023-03-25T01:01:45.329Z,26.41
2023-03-25T01:05:45.547Z,26.93
2023-03-25T01:09:45.359Z,27.19
2023-03-25T01:13:45.495Z,29.50
2023-03-25T01:17:45.442Z,28.94
2023-03-25T01:21:45.994Z,32.45
2023-03-25T01:25:45.991Z,27.00
2023-03-25T01:29:45.999Z,27.87
2023-03-25T01:33:46.049Z,28.79
2023-03-25T01:37:45.554Z,28.10
2023-03-25T01:41:50.232Z,27.24
2023-03-25T01:45:46.998Z,28.16
2023-03-25T01:49:45.824Z,28.73
2023-03-25T01:53:46.015Z,28.03
2023-03-25T01:57:45.799Z,26.81
2023-03-25T02:01:45.765Z,26.18
2023-03-25T02:05:45.996Z,27.90
2023-03-25T02:09:45.782Z,26.62
2023-03-25T02:13:45.780Z,29.48
2023-03-25T02:17:45.774Z,27.38
2023-03-25T02:21:46.044Z,28.30
2023-03-25T02:25:46.273Z,26.63
2023-03-25T02:29:46.038Z,28.18
2023-03-25T02:33:45.718Z,27.75
2023-03-25T02:37:46.034Z,27.33
2023-03-25T02:41:46.066Z,26.45
2023-03-25T02:45:46.078Z,26.56
2023-03-25T02:49:46.033Z,27.63
2023-03-25T02:53:45.682Z,28.39
2023-03-25T02:57:45.651Z,27.62
2023-03-25T03:01:45.789Z,26.98
2023-03-25T03:05:46.093Z,27.80
2023-03-25T03:09:45.643Z,26.90
2023-03-25T03:13:46.543Z,27.58
2023-03-25T03:17:46.127Z,29.37
2023-03-25T03:21:46.032Z,27.43
2023-03-25T03:25:46.031Z,27.54
2023-03-25T03:29:45.643Z,28.66
2023-03-25T03:33:46.032Z,30.58
2023-03-25T03:37:46.041Z,28.59
2023-03-25T03:41:46.054Z,26.85
2023-03-25T03:45:46.065Z,27.47
2023-03-25T03:49:45.572Z,27.70
2023-03-25T03:53:46.047Z,28.30
2023-03-25T03:57:45.556Z,28.28
2023-03-25T04:01:45.632Z,28.45
2023-03-25T04:05:45.570Z,27.26
2023-03-25T04:09:45.586Z,28.53
2023-03-25T04:13:45.592Z,29.80
2023-03-25T04:17:46.087Z,28.29
2023-03-25T04:21:46.102Z,28.62
2023-03-25T04:25:45.652Z,29.21
2023-03-25T04:29:47.606Z,26.67
2023-03-25T04:33:45.615Z,26.39
2023-03-25T04:37:46.110Z,26.83
2023-03-25T04:41:46.063Z,29.51
2023-03-25T04:45:45.640Z,27.66
2023-03-25T04:49:45.602Z,29.37
2023-03-25T04:53:46.066Z,26.67
2023-03-25T04:57:46.102Z,28.91
2023-03-25T05:01:46.266Z,29.23
2023-03-25T05:05:45.617Z,27.41
2023-03-25T05:09:45.560Z,28.59
2023-03-25T05:13:45.571Z,29.32
2023-03-25T05:17:45.622Z,29.71
2023-03-25T05:21:45.545Z,28.27
2023-03-25T05:25:45.636Z,27.47
2023-03-25T05:29:45.549Z,27.84
2023-03-25T05:33:45.560Z,29.46
2023-03-25T05:37:45.587Z,26.31
2023-03-25T05:41:45.619Z,25.68
2023-03-25T05:45:45.648Z,28.24
2023-03-25T05:49:45.606Z,29.01
2023-03-25T05:53:45.603Z,28.07
2023-03-25T05:57:45.518Z,27.99
2023-03-25T06:01:45.499Z,29.91
2023-03-25T06:05:45.518Z,30.95
2023-03-25T06:09:45.628Z,32.93
2023-03-25T06:13:45.628Z,31.65
2023-03-25T06:17:46.182Z,30.78
2023-03-25T06:21:45.765Z,31.69
2023-03-25T06:25:46.115Z,28.80
2023-03-25T06:29:46.136Z,28.81
2023-03-25T06:33:46.130Z,28.52
2023-03-25T06:37:46.152Z,27.65
2023-03-25T06:41:45.780Z,27.16
2023-03-25T06:45:46.280Z,28.91
2023-03-25T06:49:46.668Z,28.45
2023-03-25T06:53:46.196Z,31.31
2023-03-25T06:57:45.778Z,29.03
2023-03-25T07:01:46.149Z,28.74
2023-03-25T07:05:46.131Z,26.72
2023-03-25T07:09:46.108Z,31.13
2023-03-25T07:13:45.913Z,31.03
2023-03-25T07:17:46.045Z,30.35
2023-03-25T07:21:46.137Z,26.72
2023-03-25T07:25:46.634Z,28.11
2023-03-25T07:29:46.657Z,31.32
2023-03-25T07:33:46.337Z,31.97
2023-03-25T07:37:46.303Z,34.08
2023-03-25T07:41:46.634Z,34.22
2023-03-25T07:45:46.707Z,36.72
2023-03-25T07:49:46.658Z,34.75
2023-03-25T07:53:46.163Z,33.54
2023-03-25T07:57:46.208Z,34.49
2023-03-25T08:01:46.103Z,90.87
2023-03-25T08:05:46.142Z,161.25
2023-03-25T08:09:46.174Z,148.25
2023-03-25T08:13:45.946Z,85.18
2023-03-25T08:17:46.195Z,61.77
2023-03-25T08:21:46.147Z,45.66
2023-03-25T08:25:46.680Z,26.75
2023-03-25T08:29:46.655Z,30.68
2023-03-25T08:33:46.411Z,26.26
2023-03-25T08:37:46.466Z,30.03
2023-03-25T08:41:46.693Z,36.72
2023-03-25T08:45:46.772Z,35.62
2023-03-25T08:49:46.676Z,34.65
2023-03-25T08:53:46.590Z,33.38
2023-03-25T08:57:46.528Z,33.26
2023-03-25T09:01:47.198Z,37.34
2023-03-25T09:05:47.160Z,38.79
2023-03-25T09:09:46.690Z,39.89
2023-03-25T09:13:47.221Z,40.46
2023-03-25T09:17:46.706Z,40.69
2023-03-25T09:21:46.695Z,39.25
2023-03-25T09:25:46.670Z,39.35
2023-03-25T09:29:46.571Z,40.43
2023-03-25T09:33:46.677Z,36.72
2023-03-25T09:37:46.693Z,40.56
2023-03-25T09:41:47.415Z,41.24
2023-03-25T09:45:46.743Z,38.41
2023-03-25T09:49:46.351Z,37.39
2023-03-25T09:53:46.694Z,35.59
2023-03-25T09:57:46.722Z,32.79
2023-03-25T10:01:46.750Z,35.53
2023-03-25T10:05:46.201Z,33.55
2023-03-25T10:09:46.147Z,28.11
2023-03-25T10:13:46.233Z,30.13
2023-03-25T10:17:46.724Z,29.48
2023-03-25T10:21:46.720Z,28.18
2023-03-25T10:25:46.300Z,33.77
2023-03-25T10:29:46.754Z,27.84
2023-03-25T10:33:46.722Z,31.59
2023-03-25T10:37:46.747Z,25.78
2023-03-25T10:41:46.322Z,31.89
2023-03-25T10:45:46.745Z,31.31
2023-03-25T10:49:46.272Z,31.71
2023-03-25T10:53:46.719Z,31.66
2023-03-25T10:57:46.750Z,27.45
2023-03-25T11:01:46.274Z,29.08
2023-03-25T11:05:46.741Z,31.33
2023-03-25T11:09:46.313Z,31.96
2023-03-25T11:13:46.741Z,30.28
2023-03-25T11:17:46.749Z,32.73
2023-03-25T11:21:46.378Z,30.06
2023-03-25T11:25:46.728Z,29.69
2023-03-25T11:29:46.700Z,32.99
2023-03-25T11:33:46.717Z,36.34
2023-03-25T11:37:46.547Z,25.56
2023-03-25T11:41:46.574Z,31.38
2023-03-25T11:45:46.770Z,29.04
2023-03-25T11:49:47.247Z,30.48
2023-03-25T11:53:47.278Z,28.13
2023-03-25T11:57:46.905Z,33.93
2023-03-25T12:01:47.013Z,34.73
2023-03-25T12:05:47.252Z,29.23
2023-03-25T12:09:47.246Z,32.43
2023-03-25T12:13:47.760Z,36.71
2023-03-25T12:17:47.402Z,36.74
2023-03-25T12:21:47.510Z,36.88
2023-03-25T12:25:47.746Z,37.35
2023-03-25T12:29:47.689Z,33.33
2023-03-25T12:33:48.316Z,34.38
2023-03-25T12:37:47.843Z,29.79
2023-03-25T12:41:48.283Z,36.58
2023-03-25T12:45:48.057Z,41.01
2023-03-25T12:49:48.306Z,35.69
2023-03-25T12:53:48.737Z,33.65
2023-03-25T12:57:48.396Z,30.82
2023-03-25T13:01:49.562Z,27.32
2023-03-25T13:05:48.754Z,30.19
2023-03-25T13:09:48.764Z,32.56
2023-03-25T13:13:48.889Z,39.36
2023-03-25T13:17:49.375Z,32.53
2023-03-25T13:21:49.185Z,31.88
2023-03-25T13:25:49.768Z,29.35
2023-03-25T13:29:49.788Z,31.52
2023-03-25T13:33:49.627Z,32.42
2023-03-25T13:37:49.767Z,32.01
2023-03-25T13:41:52.100Z,33.81
2023-03-25T13:45:50.371Z,40.20
2023-03-25T13:49:50.298Z,36.14
2023-03-25T13:53:50.387Z,34.34
2023-03-25T13:57:50.562Z,35.85
2023-03-25T14:01:57.863Z,34.54
2023-03-25T14:05:50.996Z,39.78
2023-03-25T14:09:50.615Z,35.88
2023-03-25T14:13:50.814Z,37.33
2023-03-25T14:17:50.972Z,38.72
2023-03-25T14:21:50.866Z,36.26
2023-03-25T14:25:50.817Z,37.61
2023-03-25T14:29:50.577Z,36.14
2023-03-25T14:33:50.847Z,32.04
2023-03-25T14:37:50.860Z,34.79
2023-03-25T14:41:50.850Z,36.55
2023-03-25T14:45:50.867Z,35.21
2023-03-25T14:49:50.443Z,34.14
2023-03-25T14:53:50.838Z,32.42
2023-03-25T14:57:50.853Z,33.90
2023-03-25T15:01:50.360Z,33.37
2023-03-25T15:05:50.330Z,32.96
2023-03-25T15:09:50.513Z,33.21
2023-03-25T15:13:50.891Z,33.31
2023-03-25T15:17:50.909Z,30.87
2023-03-25T15:21:50.845Z,31.54
2023-03-25T15:25:50.594Z,31.62
2023-03-25T15:29:52.410Z,31.47
2023-03-25T15:33:50.856Z,28.94
2023-03-25T15:37:50.848Z,31.34
2023-03-25T15:41:52.352Z,32.18
2023-03-25T15:45:50.650Z,29.09
2023-03-25T15:49:50.859Z,30.86
2023-03-25T15:53:50.872Z,30.53
2023-03-25T15:57:50.837Z,29.75
2023-03-25T16:01:50.846Z,30.28
2023-03-25T16:05:50.548Z,28.29
2023-03-25T16:09:50.874Z,28.71
2023-03-25T16:13:50.482Z,26.76
2023-03-25T16:17:50.986Z,27.66
2023-03-25T16:21:50.411Z,28.08
2023-03-25T16:25:50.326Z,29.53
2023-03-25T16:29:50.853Z,27.88
2023-03-25T16:33:50.364Z,26.71
2023-03-25T16:37:50.388Z,28.93
2023-03-25T16:41:50.246Z,29.44
2023-03-25T16:45:50.467Z,28.33
2023-03-25T16:49:50.360Z,28.65
2023-03-25T16:53:50.394Z,29.44
2023-03-25T16:57:50.396Z,27.92
2023-03-25T17:01:50.206Z,28.33
2023-03-25T17:05:50.399Z,29.20
2023-03-25T17:09:50.352Z,25.09
2023-03-25T17:13:50.409Z,30.44
2023-03-25T17:17:51.655Z,30.95
2023-03-25T17:21:50.553Z,30.28
2023-03-25T17:25:50.892Z,25.97
2023-03-25T17:29:51.409Z,26.83
2023-03-25T17:33:50.769Z,26.45
2023-03-25T17:37:51.368Z,27.29
2023-03-25T17:41:50.900Z,31.18
2023-03-25T17:45:50.870Z,26.26
2023-03-25T17:49:50.902Z,29.15
2023-03-25T17:53:50.812Z,26.76
2023-03-25T17:57:50.842Z,27.91
2023-03-25T18:01:50.958Z,26.93
2023-03-25T18:05:51.034Z,28.44
2023-03-25T18:09:50.908Z,28.19
2023-03-25T18:13:50.913Z,25.71
2023-03-25T18:17:50.805Z,28.25
2023-03-25T18:21:50.938Z,29.35
2023-03-25T18:25:50.896Z,29.48
2023-03-25T18:29:50.932Z,31.09
2023-03-25T18:33:50.724Z,29.83
2023-03-25T18:37:50.712Z,28.44
2023-03-25T18:41:50.711Z,27.02
2023-03-25T18:45:50.901Z,27.65
2023-03-25T18:49:50.948Z,28.72
2023-03-25T18:53:50.657Z,29.04
2023-03-25T18:57:50.928Z,28.39
2023-03-25T19:01:50.958Z,30.31
2023-03-25T19:05:50.967Z,28.30
2023-03-25T19:09:53.101Z,28.00
2023-03-25T19:13:50.567Z,28.29
2023-03-25T19:17:50.982Z,27.76
2023-03-25T19:21:50.467Z,28.43
2023-03-25T19:25:50.968Z,29.28
2023-03-25T19:29:50.485Z,28.02
2023-03-25T19:33:50.339Z,30.25
2023-03-25T19:37:50.440Z,25.69
2023-03-25T19:41:50.288Z,28.81
2023-03-25T19:45:50.436Z,29.82
2023-03-25T19:49:50.219Z,27.78
2023-03-25T19:53:50.448Z,27.73
2023-03-25T19:57:50.167Z,27.18
2023-03-25T20:01:50.490Z,29.06
2023-03-25T20:05:50.633Z,28.36
2023-03-25T20:09:50.046Z,28.50
2023-03-25T20:13:50.015Z,30.24
2023-03-25T20:17:50.475Z,25.00
2023-03-25T20:21:49.938Z,27.49
2023-03-25T20:25:50.028Z,28.02
2023-03-25T20:29:49.887Z,28.74
2023-03-25T20:33:49.996Z,29.23
2023-03-25T20:37:49.827Z,25.40
2023-03-25T20:41:49.950Z,29.25
2023-03-25T20:45:49.829Z,30.36
2023-03-25T20:49:49.701Z,26.89
2023-03-25T20:53:49.995Z,27.49
2023-03-25T20:57:49.956Z,27.53
2023-03-25T21:01:50.011Z,25.58
2023-03-25T21:05:49.559Z,28.17
2023-03-25T21:09:49.994Z,26.83
2023-03-25T21:13:49.452Z,27.73
2023-03-25T21:17:49.507Z,31.24
2023-03-25T21:21:49.399Z,28.70
2023-03-25T21:25:49.485Z,27.73
2023-03-25T21:29:49.973Z,26.64
2023-03-25T21:33:51.190Z,26.67
2023-03-25T21:37:49.539Z,27.97
2023-03-25T21:41:49.251Z,26.28
2023-03-25T21:45:49.547Z,26.69
2023-03-25T21:49:49.505Z,29.59
2023-03-25T21:53:49.106Z,28.73
2023-03-25T21:57:49.520Z,28.25
2023-03-25T22:01:49.125Z,29.34
2023-03-25T22:05:49.500Z,26.67
2023-03-25T22:09:49.177Z,27.83
2023-03-25T22:13:49.495Z,26.02
2023-03-25T22:17:49.247Z,27.63
2023-03-25T22:21:49.500Z,29.41
2023-03-25T22:25:49.523Z,30.39
2023-03-25T22:29:49.193Z,28.80
2023-03-25T22:33:49.476Z,30.71
2023-03-25T22:37:49.247Z,28.03
2023-03-25T22:41:49.512Z,27.62
2023-03-25T22:45:49.571Z,26.94
2023-03-25T22:49:49.287Z,29.14
2023-03-25T22:53:49.517Z,28.97
2023-03-25T22:57:49.263Z,28.26
2023-03-25T23:01:49.577Z,28.30
2023-03-25T23:05:49.560Z,28.68
2023-03-25T23:09:49.308Z,25.38
2023-03-25T23:13:49.560Z,30.41
2023-03-25T23:17:49.369Z,28.67
2023-03-25T23:21:49.539Z,28.28
2023-03-25T23:25:49.525Z,28.84
2023-03-25T23:29:49.367Z,30.23
2023-03-25T23:33:49.386Z,30.33
2023-03-25T23:37:49.603Z,25.96
2023-03-25T23:41:49.546Z,28.39
2023-03-25T23:45:49.579Z,28.53
2023-03-25T23:49:49.426Z,30.66
2023-03-25T23:53:49.472Z,28.24
2023-03-25T23:57:49.475Z,29.67
